createdAt,value
2017-09-13T00:01:44.148Z,3.90
2017-09-13T00:04:12.247Z,7.80
2017-09-13T00:06:40.349Z,5.20
2017-09-13T00:09:09.240Z,6.40
2017-09-13T00:11:37.611Z,5.60
2017-09-13T00:14:05.716Z,6.20
2017-09-13T00:16:33.805Z,8.70
2017-09-13T00:19:01.923Z,8.70
2017-09-13T00:21:29.996Z,5.70
2017-09-13T00:23:58.118Z,9.50
2017-09-13T00:26:26.735Z,8.73
2017-09-13T00:28:54.827Z,8.27
2017-09-13T00:31:23.709Z,6.70
2017-09-13T00:33:51.811Z,9.80
2017-09-13T00:36:20.992Z,9.30
2017-09-13T00:38:49.390Z,9.20
2017-09-13T00:41:17.477Z,8.20
2017-09-13T00:43:46.679Z,6.33
2017-09-13T00:46:14.753Z,6.40
2017-09-13T00:48:42.851Z,9.20
2017-09-13T00:51:10.941Z,10.47
2017-09-13T00:53:40.960Z,7.93
2017-09-13T00:56:09.061Z,9.80
2017-09-13T00:58:37.918Z,8.77
2017-09-13T01:01:06.020Z,8.10
2017-09-13T01:03:34.088Z,6.57
2017-09-13T01:06:02.192Z,6.90
2017-09-13T01:08:30.510Z,9.50
2017-09-13T01:10:59.382Z,7.93
2017-09-13T01:13:27.518Z,6.23
2017-09-13T01:15:56.601Z,8.90
2017-09-13T01:18:25.486Z,7.37
2017-09-13T01:20:55.076Z,9.90
2017-09-13T01:23:23.201Z,6.53
2017-09-13T01:25:51.298Z,9.10
2017-09-13T01:28:19.381Z,8.13
2017-09-13T01:30:47.489Z,14.77
2017-09-13T01:33:16.563Z,8.33
2017-09-13T01:35:44.667Z,6.30
2017-09-13T01:38:13.565Z,10.07
2017-09-13T01:40:41.663Z,9.43
2017-09-13T01:43:09.780Z,7.80
2017-09-13T01:45:37.889Z,11.30
2017-09-13T01:48:05.978Z,8.70
2017-09-13T01:50:34.090Z,10.07
2017-09-13T01:53:02.200Z,8.43
2017-09-13T01:55:30.332Z,8.13
2017-09-13T01:57:58.403Z,6.10
2017-09-13T02:00:26.524Z,7.53
2017-09-13T02:02:54.601Z,9.53
2017-09-13T02:05:22.680Z,9.00
2017-09-13T02:07:50.769Z,12.50
2017-09-13T02:10:18.873Z,7.77
2017-09-13T02:12:48.091Z,12.73
2017-09-13T02:15:16.332Z,13.27
2017-09-13T02:17:44.459Z,10.30
2017-09-13T02:20:12.567Z,11.87
2017-09-13T02:22:40.688Z,9.97
2017-09-13T02:25:09.764Z,14.40
2017-09-13T02:27:37.859Z,7.57
2017-09-13T02:30:05.939Z,10.90
2017-09-13T02:32:35.006Z,9.93
2017-09-13T02:35:03.498Z,15.37
2017-09-13T02:37:32.695Z,12.90
2017-09-13T02:40:04.256Z,8.67
2017-09-13T02:42:32.558Z,11.07
2017-09-13T02:45:04.292Z,10.00
2017-09-13T02:47:33.485Z,11.53
2017-09-13T02:50:01.621Z,13.57
2017-09-13T02:52:32.799Z,9.07
2017-09-13T02:55:00.967Z,13.00
2017-09-13T02:57:29.139Z,15.63
2017-09-13T02:59:58.290Z,13.67
2017-09-13T03:02:27.475Z,15.73
2017-09-13T03:04:56.837Z,10.63
2017-09-13T03:07:24.946Z,11.47
2017-09-13T03:09:53.126Z,13.77
2017-09-13T03:12:22.392Z,13.50
2017-09-13T03:14:50.552Z,8.93
2017-09-13T03:17:22.950Z,10.57
2017-09-13T03:19:52.219Z,16.03
2017-09-13T03:22:21.422Z,11.60
2017-09-13T03:24:50.333Z,17.30
2017-09-13T03:27:19.423Z,11.90
2017-09-13T03:29:47.601Z,11.40
2017-09-13T03:32:16.565Z,6.53
2017-09-13T03:34:44.743Z,10.30
2017-09-13T03:37:12.898Z,11.77
2017-09-13T03:39:43.086Z,7.00
2017-09-13T03:42:11.219Z,6.90
2017-09-13T03:44:40.112Z,13.27
2017-09-13T03:47:08.244Z,18.07
2017-09-13T03:49:36.355Z,13.40
2017-09-13T03:52:06.172Z,8.20
2017-09-13T03:54:34.471Z,10.90
2017-09-13T03:57:03.351Z,9.23
2017-09-13T03:59:33.480Z,12.13
2017-09-13T04:02:01.730Z,9.10
2017-09-13T04:04:29.851Z,11.80
2017-09-13T04:06:58.941Z,9.77
2017-09-13T04:09:30.708Z,7.47
2017-09-13T04:11:58.824Z,10.73
2017-09-13T04:14:26.922Z,11.53
2017-09-13T04:16:55.811Z,7.30
2017-09-13T04:19:24.699Z,14.63
2017-09-13T04:21:53.652Z,10.17
2017-09-13T04:24:22.145Z,3.57
2017-09-13T04:26:50.622Z,5.07
2017-09-13T04:29:19.848Z,9.73
2017-09-13T04:31:47.999Z,6.17
2017-09-13T04:34:16.125Z,6.07
2017-09-13T04:36:44.298Z,3.70
2017-09-13T04:39:12.440Z,7.27
2017-09-13T04:41:40.591Z,4.80
2017-09-13T04:44:08.704Z,4.90
2017-09-13T04:46:37.653Z,6.47
2017-09-13T04:49:05.749Z,2.23
2017-09-13T04:51:34.721Z,3.37
2017-09-13T04:54:02.874Z,9.17
2017-09-13T04:56:34.707Z,5.67
2017-09-13T04:59:02.807Z,4.07
2017-09-13T05:01:30.915Z,2.07
2017-09-13T05:03:59.039Z,2.27
2017-09-13T05:06:27.177Z,1.43
2017-09-13T05:08:56.049Z,1.83
2017-09-13T05:11:24.141Z,2.20
2017-09-13T05:13:53.018Z,2.53
2017-09-13T05:16:21.116Z,2.13
2017-09-13T05:18:49.284Z,1.10
2017-09-13T05:21:17.508Z,4.63
2017-09-13T05:23:45.609Z,3.73
2017-09-13T05:26:15.683Z,2.90
2017-09-13T05:28:43.794Z,2.00
2017-09-13T05:31:12.353Z,1.70
2017-09-13T05:33:40.492Z,2.53
2017-09-13T05:36:08.598Z,1.40
2017-09-13T05:38:36.804Z,2.20
2017-09-13T05:41:05.847Z,3.53
2017-09-13T05:43:33.963Z,2.13
2017-09-13T05:46:02.051Z,4.40
2017-09-13T05:48:30.142Z,1.77
2017-09-13T05:50:59.036Z,2.80
2017-09-13T05:53:28.404Z,1.47
2017-09-13T05:55:58.485Z,1.53
2017-09-13T05:58:26.591Z,3.67
2017-09-13T06:00:55.791Z,2.47
2017-09-13T06:03:23.879Z,3.57
2017-09-13T06:05:56.376Z,1.20
2017-09-13T06:08:24.480Z,2.43
2017-09-13T06:10:52.566Z,2.63
2017-09-13T06:13:20.732Z,2.60
2017-09-13T06:15:48.817Z,2.07
2017-09-13T06:18:16.926Z,3.60
2017-09-13T06:20:46.840Z,2.00
2017-09-13T06:23:15.936Z,4.20
2017-09-13T06:25:44.097Z,2.33
2017-09-13T06:28:12.197Z,3.60
2017-09-13T06:30:40.478Z,3.07
2017-09-13T06:33:10.484Z,1.73
2017-09-13T06:35:38.967Z,1.70
2017-09-13T06:38:07.340Z,3.00
2017-09-13T06:40:35.415Z,3.00
2017-09-13T06:43:03.745Z,1.80
2017-09-13T06:45:31.850Z,6.90
2017-09-13T06:48:00.744Z,2.30
2017-09-13T06:50:29.751Z,4.03
2017-09-13T06:52:58.630Z,7.83
2017-09-13T06:55:27.502Z,5.83
2017-09-13T06:57:55.616Z,5.57
2017-09-13T07:00:23.733Z,9.20
2017-09-13T07:02:51.897Z,4.63
2017-09-13T07:05:20.019Z,6.13
2017-09-13T07:07:48.940Z,4.07
2017-09-13T07:10:17.034Z,6.87
2017-09-13T07:12:45.140Z,6.13
2017-09-13T07:15:13.210Z,5.93
2017-09-13T07:17:41.314Z,3.17
2017-09-13T07:20:10.333Z,11.30
2017-09-13T07:22:38.409Z,10.17
2017-09-13T07:25:06.520Z,8.70
2017-09-13T07:27:34.665Z,22.43
2017-09-13T07:30:03.712Z,12.00
2017-09-13T07:32:33.727Z,11.67
2017-09-13T07:35:02.598Z,16.47
2017-09-13T07:37:31.797Z,12.20
2017-09-13T07:40:00.323Z,17.10
2017-09-13T07:42:29.297Z,12.47
2017-09-13T07:44:57.391Z,11.43
2017-09-13T07:47:25.515Z,18.30
2017-09-13T07:49:53.603Z,15.33
2017-09-13T07:52:23.280Z,20.20
2017-09-13T07:54:51.392Z,21.43
2017-09-13T07:57:20.239Z,17.57
2017-09-13T07:59:48.572Z,11.60
2017-09-13T08:02:18.582Z,19.13
2017-09-13T08:04:46.922Z,16.63
2017-09-13T08:07:15.237Z,20.00
2017-09-13T08:09:44.227Z,26.03
2017-09-13T08:12:12.353Z,19.27
2017-09-13T08:14:40.476Z,18.03
2017-09-13T08:17:08.579Z,24.30
2017-09-13T08:19:36.738Z,20.13
2017-09-13T08:22:04.826Z,16.93
2017-09-13T08:24:32.945Z,28.40
2017-09-13T08:27:01.028Z,23.00
2017-09-13T08:29:29.927Z,30.30
2017-09-13T08:31:58.019Z,29.83
2017-09-13T08:34:26.110Z,23.63
2017-09-13T08:36:54.580Z,28.87
2017-09-13T08:39:22.663Z,27.30
2017-09-13T08:41:50.772Z,30.00
2017-09-13T08:44:18.856Z,19.53
2017-09-13T08:46:46.969Z,24.07
2017-09-13T08:49:16.228Z,24.53
2017-09-13T08:51:45.111Z,14.10
2017-09-13T08:54:15.137Z,21.37
2017-09-13T08:56:43.249Z,17.90
2017-09-13T08:59:11.350Z,20.50
2017-09-13T09:01:39.438Z,18.30
2017-09-13T09:04:07.556Z,14.17
2017-09-13T09:06:36.561Z,19.27
2017-09-13T09:09:04.684Z,28.70
2017-09-13T09:11:32.755Z,11.00
2017-09-13T09:14:00.858Z,19.93
2017-09-13T09:16:28.968Z,18.63
2017-09-13T09:18:57.116Z,12.40
2017-09-13T09:21:25.952Z,16.20
2017-09-13T09:23:54.064Z,23.67
2017-09-13T09:26:22.163Z,22.27
2017-09-13T09:28:50.272Z,13.60
2017-09-13T09:31:18.748Z,9.90
2017-09-13T09:33:47.875Z,14.33
2017-09-13T09:36:16.733Z,10.33
2017-09-13T09:38:44.864Z,11.00
2017-09-13T09:41:13.931Z,17.70
2017-09-13T09:43:42.796Z,10.20
2017-09-13T09:46:10.887Z,12.57
2017-09-13T09:48:38.986Z,13.50
2017-09-13T09:51:07.927Z,14.13
2017-09-13T09:53:36.011Z,10.47
2017-09-13T09:56:04.117Z,10.20
2017-09-13T09:58:32.261Z,6.03
2017-09-13T10:01:00.344Z,7.33
2017-09-13T10:03:28.440Z,10.77
2017-09-13T10:05:56.546Z,7.70
2017-09-13T10:08:25.548Z,7.33
2017-09-13T10:10:53.662Z,12.53
2017-09-13T10:13:21.763Z,16.70
2017-09-13T10:15:49.869Z,17.60
2017-09-13T10:18:17.969Z,13.13
2017-09-13T10:20:46.059Z,17.13
2017-09-13T10:23:15.252Z,13.13
2017-09-13T10:25:44.121Z,13.17
2017-09-13T10:28:13.083Z,17.13
2017-09-13T10:30:41.178Z,13.27
2017-09-13T10:33:09.294Z,9.40
2017-09-13T10:35:38.652Z,13.57
2017-09-13T10:38:06.745Z,21.07
2017-09-13T10:40:34.852Z,15.60
2017-09-13T10:43:02.975Z,9.67
2017-09-13T10:45:32.780Z,12.07
2017-09-13T10:48:01.475Z,9.87
2017-09-13T10:50:29.578Z,9.63
2017-09-13T10:52:57.665Z,8.47
2017-09-13T10:55:27.672Z,16.30
2017-09-13T10:57:55.883Z,13.00
2017-09-13T11:00:23.988Z,13.07
2017-09-13T11:02:52.142Z,14.50
2017-09-13T11:05:20.229Z,8.20
2017-09-13T11:07:48.340Z,8.90
2017-09-13T11:10:16.435Z,8.57
2017-09-13T11:12:44.536Z,13.03
2017-09-13T11:15:12.617Z,13.10
2017-09-13T11:17:40.744Z,10.03
2017-09-13T11:20:08.841Z,9.47
2017-09-13T11:22:37.011Z,13.73
2017-09-13T11:25:05.140Z,8.40
2017-09-13T11:27:33.988Z,8.20
2017-09-13T11:30:02.069Z,9.70
2017-09-13T11:32:30.180Z,7.63
2017-09-13T11:34:58.308Z,8.13
2017-09-13T11:37:26.746Z,8.57
2017-09-13T11:39:54.836Z,8.17
2017-09-13T11:42:23.730Z,7.60
2017-09-13T11:44:51.803Z,9.63
2017-09-13T11:47:20.159Z,11.53
2017-09-13T11:49:48.255Z,7.83
2017-09-13T11:52:17.596Z,17.83
2017-09-13T11:54:46.473Z,5.17
2017-09-13T11:57:14.554Z,11.47
2017-09-13T11:59:43.787Z,6.00
2017-09-13T12:02:11.886Z,11.30
2017-09-13T12:04:40.891Z,10.17
2017-09-13T12:07:08.996Z,6.43
2017-09-13T12:09:37.079Z,9.10
2017-09-13T12:12:05.185Z,11.27
2017-09-13T12:14:33.287Z,8.13
2017-09-13T12:17:01.377Z,10.17
2017-09-13T12:19:29.491Z,10.20
2017-09-13T12:21:57.784Z,12.37
2017-09-13T12:24:25.945Z,12.63
2017-09-13T12:26:54.083Z,7.63
2017-09-13T12:29:22.509Z,18.93
2017-09-13T12:31:50.576Z,8.43
2017-09-13T12:34:18.697Z,15.90
2017-09-13T12:36:47.724Z,14.53
2017-09-13T12:39:15.819Z,10.13
2017-09-13T12:41:43.984Z,12.43
2017-09-13T12:44:12.072Z,13.00
2017-09-13T12:46:40.228Z,6.13
2017-09-13T12:49:08.334Z,11.33
2017-09-13T12:51:36.680Z,17.57
2017-09-13T12:54:04.974Z,11.97
2017-09-13T12:56:33.399Z,16.63
2017-09-13T12:59:03.164Z,8.33
2017-09-13T13:01:31.264Z,13.10
2017-09-13T13:04:00.372Z,11.37
2017-09-13T13:06:29.549Z,15.27
2017-09-13T13:08:57.623Z,7.53
2017-09-13T13:11:27.660Z,12.13
2017-09-13T13:13:55.814Z,9.70
2017-09-13T13:16:24.923Z,9.00
2017-09-13T13:18:53.236Z,9.30
2017-09-13T13:21:21.324Z,10.27
2017-09-13T13:23:50.339Z,4.50
2017-09-13T13:26:18.431Z,8.97
2017-09-13T13:28:46.552Z,10.23
2017-09-13T13:31:14.624Z,5.03
2017-09-13T13:33:42.720Z,8.17
2017-09-13T13:36:10.833Z,8.47
2017-09-13T13:38:38.908Z,7.10
2017-09-13T13:41:07.037Z,6.67
2017-09-13T13:43:35.243Z,9.10
2017-09-13T13:46:03.770Z,6.17
2017-09-13T13:48:33.071Z,9.50
2017-09-13T13:51:01.704Z,8.10
2017-09-13T13:53:29.812Z,7.10
2017-09-13T13:55:57.910Z,9.37
2017-09-13T13:58:26.011Z,14.60
2017-09-13T14:00:54.171Z,12.37
2017-09-13T14:03:23.049Z,7.60
2017-09-13T14:05:51.161Z,11.30
2017-09-13T14:08:19.292Z,16.87
2017-09-13T14:10:47.363Z,9.63
2017-09-13T14:13:15.449Z,18.30
2017-09-13T14:15:43.540Z,7.40
2017-09-13T14:18:11.619Z,8.13
2017-09-13T14:20:39.703Z,12.07
2017-09-13T14:23:07.825Z,11.90
2017-09-13T14:25:35.912Z,8.10
2017-09-13T14:28:04.000Z,6.30
2017-09-13T14:30:32.084Z,8.40
2017-09-13T14:33:00.193Z,5.40
2017-09-13T14:35:29.044Z,6.63
2017-09-13T14:37:57.216Z,10.93
2017-09-13T14:40:25.323Z,10.00
2017-09-13T14:42:53.451Z,9.10
2017-09-13T14:45:21.567Z,7.97
2017-09-13T14:47:50.493Z,8.77
2017-09-13T14:50:18.672Z,7.37
2017-09-13T14:52:47.821Z,5.33
2017-09-13T14:55:15.889Z,9.83
2017-09-13T14:57:44.004Z,8.00
2017-09-13T15:00:12.192Z,16.10
2017-09-13T15:02:40.334Z,9.50
2017-09-13T15:05:08.424Z,5.00
2017-09-13T15:07:36.557Z,3.33
2017-09-13T15:10:04.657Z,5.33
2017-09-13T15:12:32.771Z,4.03
2017-09-13T15:15:00.904Z,5.87
2017-09-13T15:17:29.003Z,2.40
2017-09-13T15:19:57.129Z,6.20
2017-09-13T15:22:25.988Z,4.73
2017-09-13T15:24:54.100Z,4.13
2017-09-13T15:27:22.200Z,2.40
2017-09-13T15:29:50.320Z,9.20
2017-09-13T15:32:18.516Z,6.00
2017-09-13T15:34:47.359Z,4.10
2017-09-13T15:37:15.464Z,4.57
2017-09-13T15:39:43.573Z,5.13
2017-09-13T15:42:11.678Z,4.33
2017-09-13T15:44:39.777Z,6.80
2017-09-13T15:47:07.882Z,3.90
2017-09-13T15:49:35.968Z,4.00
2017-09-13T15:52:05.540Z,8.07
2017-09-13T15:54:33.670Z,7.10
2017-09-13T15:57:01.776Z,6.40
2017-09-13T15:59:29.864Z,4.10
2017-09-13T16:01:57.984Z,5.00
2017-09-13T16:04:26.083Z,4.73
2017-09-13T16:06:54.184Z,3.60
2017-09-13T16:09:24.096Z,7.20
2017-09-13T16:11:52.960Z,14.00
2017-09-13T16:14:21.057Z,6.20
2017-09-13T16:16:49.160Z,6.07
2017-09-13T16:19:17.254Z,8.83
2017-09-13T16:21:45.355Z,6.97
2017-09-13T16:24:13.459Z,8.23
2017-09-13T16:26:41.557Z,18.20
2017-09-13T16:29:09.647Z,8.27
2017-09-13T16:31:37.752Z,10.00
2017-09-13T16:34:05.908Z,9.30
2017-09-13T16:36:34.931Z,12.23
2017-09-13T16:39:03.844Z,14.50
2017-09-13T16:41:31.951Z,12.63
2017-09-13T16:44:00.053Z,12.13
2017-09-13T16:46:28.156Z,14.00
2017-09-13T16:48:56.239Z,11.73
2017-09-13T16:51:24.362Z,7.30
2017-09-13T16:53:52.459Z,9.20
2017-09-13T16:56:20.597Z,8.10
2017-09-13T16:58:48.683Z,12.87
2017-09-13T17:01:16.793Z,9.10
2017-09-13T17:03:44.891Z,11.93
2017-09-13T17:06:13.019Z,10.67
2017-09-13T17:08:41.109Z,16.50
2017-09-13T17:11:09.181Z,13.83
2017-09-13T17:13:37.281Z,13.40
2017-09-13T17:16:05.368Z,9.80
2017-09-13T17:18:35.387Z,16.80
2017-09-13T17:21:03.492Z,17.30
2017-09-13T17:23:34.230Z,14.47
2017-09-13T17:26:04.353Z,15.60
2017-09-13T17:28:32.508Z,16.80
2017-09-13T17:31:03.405Z,13.70
2017-09-13T17:33:33.672Z,16.03
2017-09-13T17:36:03.479Z,10.40
2017-09-13T17:38:31.627Z,19.57
2017-09-13T17:41:00.858Z,22.57
2017-09-13T17:43:28.983Z,19.73
2017-09-13T17:45:57.200Z,19.33
2017-09-13T17:48:25.425Z,14.63
2017-09-13T17:50:54.175Z,15.23
2017-09-13T17:53:22.275Z,9.90
2017-09-13T17:55:51.224Z,17.63
2017-09-13T17:58:19.322Z,19.30
2017-09-13T18:00:47.491Z,18.80
2017-09-13T18:03:15.993Z,13.53
2017-09-13T18:05:44.856Z,22.87
2017-09-13T18:08:13.725Z,11.87
2017-09-13T18:10:41.988Z,20.20
2017-09-13T18:13:10.108Z,13.17
2017-09-13T18:15:39.165Z,19.13
2017-09-13T18:18:07.302Z,21.60
2017-09-13T18:20:35.500Z,13.27
2017-09-13T18:23:05.159Z,21.27
2017-09-13T18:25:34.080Z,16.23
2017-09-13T18:28:02.434Z,16.50
2017-09-13T18:30:31.040Z,11.53
2017-09-13T18:32:59.114Z,14.60
2017-09-13T18:35:28.046Z,13.70
2017-09-13T18:37:56.665Z,14.87
2017-09-13T18:40:24.987Z,10.27
2017-09-13T18:42:53.201Z,13.00
2017-09-13T18:45:22.209Z,23.33
2017-09-13T18:47:50.735Z,16.37
2017-09-13T18:50:18.879Z,15.30
2017-09-13T18:52:47.600Z,16.43
2017-09-13T18:55:16.719Z,18.23
2017-09-13T18:57:45.909Z,16.70
2017-09-13T19:00:14.004Z,22.73
2017-09-13T19:02:43.092Z,12.30
2017-09-13T19:05:13.693Z,17.23
2017-09-13T19:07:41.776Z,6.57
2017-09-13T19:10:10.488Z,14.30
2017-09-13T19:12:40.899Z,13.03
2017-09-13T19:15:09.012Z,17.73
2017-09-13T19:17:37.735Z,10.07
2017-09-13T19:20:05.864Z,14.37
2017-09-13T19:22:34.005Z,16.83
2017-09-13T19:25:02.468Z,19.97
2017-09-13T19:27:32.257Z,13.60
2017-09-13T19:30:00.372Z,12.30
2017-09-13T19:32:28.537Z,13.87
2017-09-13T19:34:57.099Z,12.73
2017-09-13T19:37:25.260Z,9.10
2017-09-13T19:39:53.342Z,9.40
2017-09-13T19:42:21.447Z,25.57
2017-09-13T19:44:49.544Z,9.07
2017-09-13T19:47:18.427Z,13.40
2017-09-13T19:49:46.569Z,11.37
2017-09-13T19:52:14.927Z,15.80
2017-09-13T19:54:43.652Z,10.30
2017-09-13T19:57:11.769Z,14.47
2017-09-13T19:59:40.775Z,12.77
2017-09-13T20:02:08.896Z,23.23
2017-09-13T20:04:36.990Z,15.07
2017-09-13T20:07:05.109Z,15.57
2017-09-13T20:09:33.258Z,13.07
2017-09-13T20:12:01.508Z,15.73
2017-09-13T20:14:29.707Z,16.00
2017-09-13T20:16:58.808Z,16.33
2017-09-13T20:19:27.048Z,18.80
2017-09-13T20:21:55.909Z,21.63
2017-09-13T20:24:24.184Z,14.80
2017-09-13T20:26:52.285Z,21.13
2017-09-13T20:29:21.499Z,17.90
2017-09-13T20:31:49.595Z,15.67
2017-09-13T20:34:19.727Z,17.10
2017-09-13T20:36:47.843Z,19.37
2017-09-13T20:39:15.918Z,16.93
2017-09-13T20:41:44.025Z,25.13
2017-09-13T20:44:12.125Z,18.07
2017-09-13T20:46:40.203Z,21.50
2017-09-13T20:49:08.320Z,21.30
2017-09-13T20:51:36.412Z,16.60
2017-09-13T20:54:04.519Z,15.10
2017-09-13T20:56:32.782Z,15.63
2017-09-13T20:59:01.284Z,17.10
2017-09-13T21:01:29.473Z,18.23
2017-09-13T21:03:59.485Z,24.17
2017-09-13T21:06:27.714Z,27.23
2017-09-13T21:08:56.011Z,15.97
2017-09-13T21:11:24.091Z,24.50
2017-09-13T21:13:53.212Z,16.67
2017-09-13T21:16:21.904Z,26.93
2017-09-13T21:18:50.125Z,22.43
2017-09-13T21:21:20.236Z,18.00
2017-09-13T21:23:48.588Z,25.70
2017-09-13T21:26:16.739Z,31.60
2017-09-13T21:28:44.819Z,20.10
2017-09-13T21:31:12.917Z,23.63
2017-09-13T21:33:41.774Z,24.53
2017-09-13T21:36:09.947Z,20.93
2017-09-13T21:38:38.063Z,26.47
2017-09-13T21:41:06.467Z,18.37
2017-09-13T21:43:34.643Z,26.73
2017-09-13T21:46:02.743Z,18.60
2017-09-13T21:48:32.177Z,17.13
2017-09-13T21:51:00.281Z,22.73
2017-09-13T21:53:28.381Z,25.23
2017-09-13T21:55:56.477Z,19.27
2017-09-13T21:58:24.579Z,20.83
2017-09-13T22:00:52.679Z,17.97
2017-09-13T22:03:20.788Z,15.07
2017-09-13T22:05:48.887Z,16.10
2017-09-13T22:08:17.955Z,12.70
2017-09-13T22:10:46.061Z,12.43
2017-09-13T22:13:14.171Z,19.20
2017-09-13T22:15:43.059Z,14.47
2017-09-13T22:18:11.160Z,14.80
2017-09-13T22:20:39.256Z,10.13
2017-09-13T22:23:08.763Z,11.73
2017-09-13T22:25:38.193Z,10.53
2017-09-13T22:28:06.276Z,11.30
2017-09-13T22:30:34.608Z,11.03
2017-09-13T22:33:03.637Z,15.03
2017-09-13T22:35:31.726Z,17.27
2017-09-13T22:37:59.871Z,19.03
2017-09-13T22:40:27.963Z,10.10
2017-09-13T22:42:56.041Z,19.50
2017-09-13T22:45:24.155Z,9.73
2017-09-13T22:47:52.316Z,16.63
2017-09-13T22:50:20.425Z,12.90
2017-09-13T22:52:49.287Z,14.43
2017-09-13T22:55:17.383Z,20.77
2017-09-13T22:57:46.275Z,12.90
2017-09-13T23:00:14.373Z,9.20
2017-09-13T23:02:42.491Z,21.20
2017-09-13T23:05:10.632Z,16.63
2017-09-13T23:07:38.751Z,12.63
2017-09-13T23:10:06.849Z,11.47
2017-09-13T23:12:35.004Z,9.73
2017-09-13T23:15:03.887Z,8.57
2017-09-13T23:17:32.793Z,12.40
2017-09-13T23:20:01.704Z,13.17
2017-09-13T23:22:29.847Z,11.33
2017-09-13T23:24:58.013Z,24.60
2017-09-13T23:27:30.044Z,10.73
2017-09-13T23:29:58.889Z,19.47
2017-09-13T23:32:27.001Z,12.90
2017-09-13T23:34:56.061Z,13.13
2017-09-13T23:37:24.208Z,13.17
2017-09-13T23:39:52.325Z,18.07
2017-09-13T23:42:20.464Z,15.63
2017-09-13T23:44:48.607Z,15.57
2017-09-13T23:47:16.774Z,10.17
2017-09-13T23:49:45.007Z,12.80
2017-09-13T23:52:13.165Z,9.40
2017-09-13T23:54:41.299Z,5.93
2017-09-13T23:57:09.402Z,16.00
2017-09-13T23:59:37.589Z,17.63
